SWA1948 KGSP-KBNA
Flight info
| Callsign | SWA1948 |
|---|---|
| Flight time | N/A |
| Altitude | 26000 |
| Route | EDDDY SWFFT3 |
| Aircraft | B737/M-SDE2E3FGHIRWXY/LB1 |
Departure
| Time | 2026-04-20 14:48 |
|---|---|
| Airport | Greenville-Spartanburg International Airport (KGSP) |
Arrival
| Time | N/A |
|---|---|
| Airport | Nashville International Airport (KBNA) |
| Time | Latitude | Longitude | Altitude | Speed | Heading |
|---|---|---|---|---|---|
| 2026-04-20 14:38 | 34.88903 | -82.21913 | 973 ft | 0 kts | 118° |
| 2026-04-20 14:41 | 34.88904 | -82.21917 | 973 ft | 2 kts | 118° |
| 2026-04-20 14:41 | 34.88910 | -82.21928 | 973 ft | 1 kts | 118° |
| 2026-04-20 14:41 | 34.88915 | -82.21941 | 973 ft | 2 kts | 106° |
| 2026-04-20 14:41 | 34.88913 | -82.21963 | 973 ft | 3 kts | 55° |
| 2026-04-20 14:42 | 34.88903 | -82.21974 | 973 ft | 0 kts | 28° |
| 2026-04-20 14:43 | 34.88915 | -82.21972 | 973 ft | 4 kts | 355° |
| 2026-04-20 14:43 | 34.88944 | -82.21999 | 973 ft | 7 kts | 306° |
| 2026-04-20 14:43 | 34.89000 | -82.22033 | 973 ft | 12 kts | 12° |
| 2026-04-20 14:44 | 34.89103 | -82.21963 | 973 ft | 22 kts | 32° |
| 2026-04-20 14:44 | 34.89261 | -82.21841 | 973 ft | 31 kts | 32° |
| 2026-04-20 14:44 | 34.89455 | -82.21693 | 973 ft | 35 kts | 33° |
| 2026-04-20 14:44 | 34.89658 | -82.21536 | 973 ft | 33 kts | 32° |
| 2026-04-20 14:45 | 34.89844 | -82.21392 | 973 ft | 30 kts | 32° |
| 2026-04-20 14:45 | 34.90010 | -82.21266 | 973 ft | 26 kts | 33° |
| 2026-04-20 14:45 | 34.90158 | -82.21150 | 973 ft | 25 kts | 32° |
| 2026-04-20 14:45 | 34.90311 | -82.21032 | 973 ft | 27 kts | 32° |
| 2026-04-20 14:46 | 34.90471 | -82.20910 | 973 ft | 27 kts | 33° |
| 2026-04-20 14:46 | 34.90626 | -82.20790 | 973 ft | 23 kts | 32° |
| 2026-04-20 14:46 | 34.90727 | -82.20740 | 973 ft | 11 kts | 336° |
| 2026-04-20 14:46 | 34.90765 | -82.20789 | 973 ft | 5 kts | 302° |
| 2026-04-20 14:47 | 34.90778 | -82.20816 | 973 ft | 4 kts | 301° |
| 2026-04-20 14:47 | 34.90808 | -82.20874 | 973 ft | 13 kts | 302° |
| 2026-04-20 14:47 | 34.90791 | -82.20948 | 973 ft | 9 kts | 215° |
| 2026-04-20 14:48 | 34.90332 | -82.21304 | 973 ft | 118 kts | 211° |
| 2026-04-20 14:48 | 34.89396 | -82.22016 | 1144 ft | 179 kts | 213° |
| 2026-04-20 14:48 | 34.88347 | -82.22816 | 1737 ft | 182 kts | 214° |
| 2026-04-20 14:48 | 34.87467 | -82.23982 | 2167 ft | 189 kts | 245° |
| 2026-04-20 14:49 | 34.87326 | -82.25559 | 3019 ft | 195 kts | 279° |
| 2026-04-20 14:49 | 34.87657 | -82.26587 | 3552 ft | 200 kts | 299° |
| 2026-04-20 14:49 | 34.89018 | -82.28143 | 4681 ft | 207 kts | 322° |
| 2026-04-20 14:49 | 34.89833 | -82.28825 | 5232 ft | 213 kts | 324° |
| 2026-04-20 14:50 | 34.91101 | -82.29826 | 5979 ft | 219 kts | 326° |
| 2026-04-20 14:50 | 34.92393 | -82.30826 | 6786 ft | 221 kts | 327° |
| 2026-04-20 14:50 | 34.93703 | -82.31856 | 7560 ft | 224 kts | 324° |
| 2026-04-20 14:50 | 34.94960 | -82.32967 | 8316 ft | 222 kts | 321° |
| 2026-04-20 14:51 | 34.96141 | -82.34179 | 9052 ft | 221 kts | 318° |
| 2026-04-20 14:51 | 34.97251 | -82.35471 | 9813 ft | 225 kts | 315° |
| 2026-04-20 14:51 | 34.98335 | -82.36867 | 10570 ft | 228 kts | 312° |
| 2026-04-20 14:51 | 34.99445 | -82.38412 | 11302 ft | 258 kts | 310° |
| 2026-04-20 14:52 | 35.00621 | -82.40146 | 11941 ft | 270 kts | 308° |
| 2026-04-20 14:52 | 35.01812 | -82.41972 | 12575 ft | 279 kts | 307° |
| 2026-04-20 14:52 | 35.03002 | -82.43841 | 13200 ft | 284 kts | 306° |
| 2026-04-20 14:52 | 35.04214 | -82.45772 | 13830 ft | 288 kts | 305° |
| 2026-04-20 14:53 | 35.05437 | -82.47740 | 14459 ft | 292 kts | 304° |
| 2026-04-20 14:53 | 35.06666 | -82.49731 | 15089 ft | 295 kts | 304° |
| 2026-04-20 14:53 | 35.07901 | -82.51741 | 15717 ft | 297 kts | 303° |
| 2026-04-20 14:53 | 35.09135 | -82.53754 | 16340 ft | 299 kts | 303° |
| 2026-04-20 14:54 | 35.10392 | -82.55808 | 16972 ft | 301 kts | 303° |
| 2026-04-20 14:54 | 35.11653 | -82.57871 | 17603 ft | 304 kts | 303° |
| 2026-04-20 14:54 | 35.12925 | -82.59955 | 18232 ft | 310 kts | 303° |
| 2026-04-20 14:54 | 35.14240 | -82.62118 | 18869 ft | 323 kts | 303° |
| 2026-04-20 14:55 | 35.15590 | -82.64341 | 19499 ft | 330 kts | 303° |
| 2026-04-20 14:55 | 35.16981 | -82.66629 | 20133 ft | 336 kts | 303° |
| 2026-04-20 14:55 | 35.18384 | -82.68937 | 20763 ft | 340 kts | 303° |
| 2026-04-20 14:55 | 35.19800 | -82.71266 | 21391 ft | 344 kts | 303° |
| 2026-04-20 14:56 | 35.21219 | -82.73600 | 22013 ft | 347 kts | 303° |
| 2026-04-20 14:56 | 35.22680 | -82.76004 | 22646 ft | 350 kts | 303° |
| 2026-04-20 14:56 | 35.24124 | -82.78382 | 23196 ft | 354 kts | 304° |
| 2026-04-20 14:56 | 35.25605 | -82.80823 | 23709 ft | 357 kts | 304° |
| 2026-04-20 14:57 | 35.27095 | -82.83275 | 24211 ft | 359 kts | 303° |
| 2026-04-20 14:57 | 35.28593 | -82.85743 | 24676 ft | 362 kts | 303° |
| 2026-04-20 14:57 | 35.30105 | -82.88237 | 25071 ft | 364 kts | 303° |
| 2026-04-20 14:57 | 35.31601 | -82.90706 | 25376 ft | 366 kts | 303° |
| 2026-04-20 14:58 | 35.33120 | -82.93216 | 25637 ft | 367 kts | 303° |
| 2026-04-20 14:58 | 35.34639 | -82.95729 | 25890 ft | 367 kts | 303° |
| 2026-04-20 14:58 | 35.36162 | -82.98250 | 26132 ft | 368 kts | 303° |
| 2026-04-20 14:58 | 35.37684 | -83.00772 | 26283 ft | 369 kts | 303° |
| 2026-04-20 14:59 | 35.39209 | -83.03301 | 26346 ft | 369 kts | 303° |
| 2026-04-20 14:59 | 35.40735 | -83.05834 | 26357 ft | 369 kts | 302° |
| 2026-04-20 14:59 | 35.42259 | -83.08366 | 26357 ft | 369 kts | 302° |
| 2026-04-20 14:59 | 35.43783 | -83.10899 | 26356 ft | 368 kts | 302° |
| 2026-04-20 15:00 | 35.45304 | -83.13429 | 26356 ft | 368 kts | 302° |
| 2026-04-20 15:00 | 35.46808 | -83.15932 | 26356 ft | 368 kts | 302° |
| 2026-04-20 15:00 | 35.48326 | -83.18462 | 26356 ft | 368 kts | 302° |
| 2026-04-20 15:00 | 35.49844 | -83.20995 | 26357 ft | 368 kts | 302° |
| 2026-04-20 15:01 | 35.51364 | -83.23531 | 26362 ft | 368 kts | 302° |
| 2026-04-20 15:01 | 35.52878 | -83.26060 | 26369 ft | 368 kts | 302° |
| 2026-04-20 15:01 | 35.54394 | -83.28595 | 26371 ft | 367 kts | 303° |
| 2026-04-20 15:01 | 35.55908 | -83.31128 | 26372 ft | 367 kts | 303° |
| 2026-04-20 15:02 | 35.57401 | -83.33626 | 26370 ft | 367 kts | 303° |
| 2026-04-20 15:02 | 35.58912 | -83.36158 | 26370 ft | 367 kts | 303° |
| 2026-04-20 15:02 | 35.60420 | -83.38686 | 26369 ft | 366 kts | 303° |
| 2026-04-20 15:02 | 35.61928 | -83.41215 | 26367 ft | 366 kts | 303° |
| 2026-04-20 15:03 | 35.63433 | -83.43742 | 26367 ft | 367 kts | 303° |
| 2026-04-20 15:03 | 35.64937 | -83.46268 | 26371 ft | 367 kts | 302° |
| 2026-04-20 15:03 | 35.66452 | -83.48816 | 26375 ft | 371 kts | 302° |
| 2026-04-20 15:03 | 35.67977 | -83.51386 | 26376 ft | 373 kts | 302° |
| 2026-04-20 15:04 | 35.69517 | -83.53981 | 26377 ft | 375 kts | 303° |
| 2026-04-20 15:04 | 35.71037 | -83.56543 | 26377 ft | 376 kts | 303° |
| 2026-04-20 15:04 | 35.72582 | -83.59149 | 26377 ft | 377 kts | 303° |
| 2026-04-20 15:04 | 35.74130 | -83.61759 | 26377 ft | 377 kts | 303° |
| 2026-04-20 15:05 | 35.75674 | -83.64367 | 26377 ft | 378 kts | 302° |
| 2026-04-20 15:05 | 35.77223 | -83.66986 | 26376 ft | 379 kts | 303° |
| 2026-04-20 15:05 | 35.78779 | -83.69621 | 26376 ft | 381 kts | 303° |
| 2026-04-20 15:05 | 35.80346 | -83.72273 | 26376 ft | 382 kts | 303° |
| 2026-04-20 15:06 | 35.81891 | -83.74891 | 26377 ft | 383 kts | 303° |
| 2026-04-20 15:06 | 35.83479 | -83.77583 | 26377 ft | 384 kts | 303° |
| 2026-04-20 15:06 | 35.85048 | -83.80244 | 26377 ft | 384 kts | 303° |
| 2026-04-20 15:06 | 35.86606 | -83.82890 | 26377 ft | 385 kts | 303° |
| 2026-04-20 15:07 | 35.88165 | -83.85559 | 26376 ft | 384 kts | 302° |
| 2026-04-20 15:07 | 35.88605 | -83.86423 | 26373 ft | 383 kts | 298° |
| 2026-04-20 15:07 | 35.89330 | -83.88537 | 26373 ft | 383 kts | 287° |
| 2026-04-20 15:08 | 35.89743 | -83.91793 | 26382 ft | 385 kts | 275° |
| 2026-04-20 15:08 | 35.89686 | -83.95104 | 26382 ft | 388 kts | 269° |
| 2026-04-20 15:08 | 35.89367 | -83.98415 | 26379 ft | 389 kts | 265° |
| 2026-04-20 15:08 | 35.88901 | -84.01717 | 26378 ft | 391 kts | 263° |
| 2026-04-20 15:09 | 35.88361 | -84.05001 | 26376 ft | 391 kts | 262° |
| 2026-04-20 15:09 | 35.87783 | -84.08278 | 26375 ft | 391 kts | 262° |
| 2026-04-20 15:09 | 35.87210 | -84.11442 | 26375 ft | 391 kts | 262° |
| 2026-04-20 15:09 | 35.86602 | -84.14783 | 26373 ft | 391 kts | 262° |
| 2026-04-20 15:10 | 35.86000 | -84.18109 | 26369 ft | 392 kts | 262° |
| 2026-04-20 15:10 | 35.85421 | -84.21338 | 26371 ft | 391 kts | 262° |
| 2026-04-20 15:10 | 35.84837 | -84.24628 | 26373 ft | 391 kts | 262° |
| 2026-04-20 15:10 | 35.84260 | -84.27913 | 26286 ft | 393 kts | 262° |
| 2026-04-20 15:11 | 35.83687 | -84.31209 | 26083 ft | 393 kts | 262° |
| 2026-04-20 15:11 | 35.83118 | -84.34508 | 25857 ft | 393 kts | 262° |
| 2026-04-20 15:11 | 35.82556 | -84.37782 | 25629 ft | 392 kts | 262° |
| 2026-04-20 15:11 | 35.81995 | -84.41068 | 25398 ft | 392 kts | 262° |
| 2026-04-20 15:12 | 35.81435 | -84.44354 | 25168 ft | 390 kts | 262° |
| 2026-04-20 15:12 | 35.80881 | -84.47608 | 24937 ft | 386 kts | 262° |
| 2026-04-20 15:12 | 35.80337 | -84.50796 | 24707 ft | 383 kts | 262° |
| 2026-04-20 15:12 | 35.79793 | -84.53995 | 24476 ft | 380 kts | 262° |
| 2026-04-20 15:13 | 35.79251 | -84.57182 | 24245 ft | 379 kts | 262° |
| 2026-04-20 15:13 | 35.78713 | -84.60349 | 24014 ft | 377 kts | 262° |
| 2026-04-20 15:13 | 35.78177 | -84.63508 | 23783 ft | 376 kts | 262° |
| 2026-04-20 15:13 | 35.77642 | -84.66657 | 23552 ft | 375 kts | 262° |
| 2026-04-20 15:14 | 35.77108 | -84.69801 | 23322 ft | 374 kts | 262° |
| 2026-04-20 15:14 | 35.76574 | -84.72938 | 23091 ft | 373 kts | 262° |
| 2026-04-20 15:14 | 35.76043 | -84.76054 | 22861 ft | 372 kts | 262° |
| 2026-04-20 15:14 | 35.75511 | -84.79168 | 22630 ft | 371 kts | 262° |
| 2026-04-20 15:15 | 35.74979 | -84.82274 | 22399 ft | 370 kts | 262° |
| 2026-04-20 15:15 | 35.74447 | -84.85378 | 22168 ft | 369 kts | 262° |
| 2026-04-20 15:15 | 35.73934 | -84.88364 | 21946 ft | 368 kts | 262° |
| 2026-04-20 15:15 | 35.73393 | -84.91510 | 21669 ft | 367 kts | 262° |
| 2026-04-20 15:16 | 35.73013 | -84.93718 | 21404 ft | 368 kts | 262° |
| 2026-04-20 15:16 | 35.72484 | -84.96792 | 21026 ft | 366 kts | 262° |
| 2026-04-20 15:16 | 35.71956 | -84.99852 | 20649 ft | 364 kts | 262° |
| 2026-04-20 15:16 | 35.71433 | -85.02869 | 20469 ft | 358 kts | 262° |
| 2026-04-20 15:17 | 35.70913 | -85.05861 | 20389 ft | 355 kts | 262° |
| 2026-04-20 15:17 | 35.70398 | -85.08831 | 20374 ft | 355 kts | 262° |
| 2026-04-20 15:17 | 35.69881 | -85.11810 | 20373 ft | 355 kts | 262° |
| 2026-04-20 15:17 | 35.69369 | -85.14754 | 20373 ft | 355 kts | 262° |
| 2026-04-20 15:18 | 35.68847 | -85.17721 | 20373 ft | 355 kts | 262° |
| 2026-04-20 15:18 | 35.68315 | -85.20692 | 20374 ft | 355 kts | 262° |
| 2026-04-20 15:18 | 35.67777 | -85.23675 | 20378 ft | 355 kts | 262° |
| 2026-04-20 15:18 | 35.67239 | -85.26635 | 20379 ft | 356 kts | 261° |
| 2026-04-20 15:19 | 35.66698 | -85.29605 | 20379 ft | 357 kts | 261° |
| 2026-04-20 15:19 | 35.66153 | -85.32586 | 20379 ft | 357 kts | 261° |
| 2026-04-20 15:19 | 35.65610 | -85.35539 | 20376 ft | 349 kts | 261° |
| 2026-04-20 15:19 | 35.65084 | -85.38372 | 20374 ft | 340 kts | 261° |
| 2026-04-20 15:20 | 35.64564 | -85.41172 | 20374 ft | 333 kts | 261° |
| 2026-04-20 15:20 | 35.64050 | -85.43940 | 20292 ft | 331 kts | 261° |
| 2026-04-20 15:20 | 35.63537 | -85.46696 | 20062 ft | 329 kts | 263° |
| 2026-04-20 15:20 | 35.63032 | -85.49415 | 19768 ft | 323 kts | 261° |
| 2026-04-20 15:21 | 35.62539 | -85.52095 | 19465 ft | 319 kts | 261° |
| 2026-04-20 15:21 | 35.62050 | -85.54748 | 19165 ft | 318 kts | 261° |
| 2026-04-20 15:21 | 35.61560 | -85.57399 | 18863 ft | 317 kts | 261° |
| 2026-04-20 15:21 | 35.61071 | -85.60038 | 18563 ft | 316 kts | 261° |
| 2026-04-20 15:22 | 35.60582 | -85.62667 | 18262 ft | 315 kts | 261° |
| 2026-04-20 15:22 | 35.60095 | -85.65281 | 17962 ft | 314 kts | 261° |
| 2026-04-20 15:22 | 35.59607 | -85.67889 | 17675 ft | 313 kts | 261° |
| 2026-04-20 15:22 | 35.59120 | -85.70495 | 17492 ft | 311 kts | 262° |
| 2026-04-20 15:23 | 35.58635 | -85.73083 | 17401 ft | 310 kts | 262° |
| 2026-04-20 15:23 | 35.58158 | -85.75630 | 17380 ft | 309 kts | 261° |
| 2026-04-20 15:23 | 35.57675 | -85.78207 | 17378 ft | 310 kts | 262° |
| 2026-04-20 15:23 | 35.57190 | -85.80796 | 17377 ft | 311 kts | 262° |
| 2026-04-20 15:24 | 35.56706 | -85.83378 | 17377 ft | 311 kts | 262° |
| 2026-04-20 15:24 | 35.56221 | -85.85987 | 17375 ft | 311 kts | 263° |
| 2026-04-20 15:24 | 35.56138 | -85.88578 | 17377 ft | 306 kts | 279° |
| 2026-04-20 15:24 | 35.56693 | -85.91117 | 17379 ft | 306 kts | 291° |
| 2026-04-20 15:25 | 35.57639 | -85.93483 | 17182 ft | 311 kts | 300° |
| 2026-04-20 15:25 | 35.58836 | -85.95694 | 16873 ft | 309 kts | 305° |
| 2026-04-20 15:25 | 35.60148 | -85.97721 | 16511 ft | 304 kts | 308° |
| 2026-04-20 15:25 | 35.61559 | -85.99681 | 16173 ft | 300 kts | 310° |
| 2026-04-20 15:26 | 35.62958 | -86.01521 | 15875 ft | 297 kts | 311° |
| 2026-04-20 15:26 | 35.64380 | -86.03354 | 15574 ft | 295 kts | 311° |
| 2026-04-20 15:26 | 35.65781 | -86.05177 | 15274 ft | 293 kts | 311° |
| 2026-04-20 15:26 | 35.67167 | -86.06999 | 14973 ft | 291 kts | 311° |
| 2026-04-20 15:27 | 35.68543 | -86.08831 | 14650 ft | 290 kts | 310° |
| 2026-04-20 15:27 | 35.69861 | -86.10698 | 14279 ft | 288 kts | 308° |
| 2026-04-20 15:27 | 35.71115 | -86.12589 | 13904 ft | 284 kts | 307° |
| 2026-04-20 15:27 | 35.72333 | -86.14496 | 13526 ft | 281 kts | 307° |
| 2026-04-20 15:28 | 35.73518 | -86.16399 | 13150 ft | 278 kts | 307° |
| 2026-04-20 15:28 | 35.74677 | -86.18288 | 12802 ft | 275 kts | 307° |
| 2026-04-20 15:28 | 35.75805 | -86.20144 | 12505 ft | 273 kts | 308° |
| 2026-04-20 15:28 | 35.76930 | -86.22008 | 12240 ft | 270 kts | 308° |
| 2026-04-20 15:29 | 35.78042 | -86.23854 | 11990 ft | 268 kts | 308° |
| 2026-04-20 15:29 | 35.79150 | -86.25696 | 11739 ft | 267 kts | 308° |
| 2026-04-20 15:29 | 35.80251 | -86.27529 | 11487 ft | 263 kts | 308° |
| 2026-04-20 15:29 | 35.81321 | -86.29316 | 11234 ft | 256 kts | 308° |
| 2026-04-20 15:30 | 35.82375 | -86.31076 | 10980 ft | 252 kts | 308° |
| 2026-04-20 15:30 | 35.83408 | -86.32802 | 10729 ft | 249 kts | 309° |
| 2026-04-20 15:30 | 35.84418 | -86.34491 | 10552 ft | 246 kts | 309° |
| 2026-04-20 15:30 | 35.85445 | -86.36208 | 10374 ft | 245 kts | 309° |
| 2026-04-20 15:31 | 35.86454 | -86.37895 | 10220 ft | 244 kts | 309° |
| 2026-04-20 15:31 | 35.87443 | -86.39550 | 10129 ft | 242 kts | 309° |
| 2026-04-20 15:31 | 35.88438 | -86.41216 | 10107 ft | 241 kts | 309° |
| 2026-04-20 15:31 | 35.89435 | -86.42885 | 10103 ft | 241 kts | 309° |
| 2026-04-20 15:32 | 35.90433 | -86.44557 | 10101 ft | 242 kts | 309° |
| 2026-04-20 15:32 | 35.91429 | -86.46228 | 10102 ft | 242 kts | 309° |
| 2026-04-20 15:32 | 35.92421 | -86.47895 | 10104 ft | 242 kts | 309° |
| 2026-04-20 15:32 | 35.93419 | -86.49571 | 10111 ft | 241 kts | 309° |